Terminal Aerodrome Forecast
Issued by NWS Topeka, KS

Home | Current Version | Previous Version | Graphics & Text | Print | Product List | Glossary On
Versions: 1 2 3 4 5 6 7 8 9 10 11 12 13 14 15 16 17 18 19 20 21
000
FTUS43 KTOP 260200 AAA
TAFTOP
TAF AMD
KTOP 260203Z 2602/2624 35007KT P6SM VCTS BKN030CB
      TEMPO 2603/2605 4SM TSRA
     FM260800 18006KT P6SM BKN025
     FM261500 22008KT P6SM SCT050=

USA.gov is the U.S. government's official web portal to all federal, state and local government web resources and services.